createdAt,value
2018-09-20T00:00:48.152Z,5.47
2018-09-20T00:03:16.456Z,4.50
2018-09-20T00:05:44.747Z,4.70
2018-09-20T00:08:13.057Z,4.43
2018-09-20T00:10:41.617Z,5.13
2018-09-20T00:13:09.933Z,4.90
2018-09-20T00:15:38.256Z,5.07
2018-09-20T00:18:06.568Z,4.37
2018-09-20T00:20:34.860Z,5.30
2018-09-20T00:23:03.169Z,4.93
2018-09-20T00:25:31.468Z,5.13
2018-09-20T00:27:59.786Z,5.07
2018-09-20T00:30:28.091Z,5.10
2018-09-20T00:32:56.407Z,5.00
2018-09-20T00:35:24.696Z,5.80
2018-09-20T00:37:53.036Z,4.87
2018-09-20T00:40:21.336Z,5.47
2018-09-20T00:42:49.696Z,5.40
2018-09-20T00:45:17.987Z,5.27
2018-09-20T00:47:46.296Z,4.80
2018-09-20T00:50:14.596Z,5.20
2018-09-20T00:52:42.917Z,5.30
2018-09-20T00:55:11.256Z,4.80
2018-09-20T00:57:39.572Z,4.97
2018-09-20T01:00:07.866Z,4.93
2018-09-20T01:02:36.177Z,5.00
2018-09-20T01:05:04.508Z,5.40
2018-09-20T01:07:32.816Z,5.27
2018-09-20T01:10:01.107Z,4.43
2018-09-20T01:12:29.430Z,5.30
2018-09-20T01:14:57.724Z,4.87
2018-09-20T01:17:26.032Z,5.20
2018-09-20T01:19:54.324Z,4.77
2018-09-20T01:22:22.636Z,4.93
2018-09-20T01:24:50.920Z,5.17
2018-09-20T01:27:19.240Z,5.13
2018-09-20T01:29:47.536Z,4.67
2018-09-20T01:32:15.833Z,5.07
2018-09-20T01:34:44.144Z,4.70
2018-09-20T01:37:12.454Z,5.23
2018-09-20T01:39:40.767Z,4.93
2018-09-20T01:42:09.059Z,4.67
2018-09-20T01:44:37.375Z,4.90
2018-09-20T01:47:05.715Z,5.07
2018-09-20T01:49:34.028Z,5.80
2018-09-20T01:52:02.327Z,5.10
2018-09-20T01:54:30.644Z,5.00
2018-09-20T01:56:58.933Z,4.60
2018-09-20T01:59:27.239Z,4.70
2018-09-20T02:01:55.549Z,5.40
2018-09-20T02:04:23.863Z,4.80
2018-09-20T02:06:52.156Z,4.40
2018-09-20T02:09:20.467Z,5.27
2018-09-20T02:11:48.764Z,4.50
2018-09-20T02:14:17.075Z,4.97
2018-09-20T02:16:45.360Z,4.30
2018-09-20T02:19:13.708Z,5.33
2018-09-20T02:21:41.999Z,5.13
2018-09-20T02:24:10.308Z,4.20
2018-09-20T02:26:38.614Z,4.60
2018-09-20T02:29:06.944Z,4.80
2018-09-20T02:31:35.232Z,5.10
2018-09-20T02:34:03.541Z,5.70
2018-09-20T02:36:31.828Z,4.80
2018-09-20T02:39:00.161Z,4.80
2018-09-20T02:41:28.452Z,5.80
2018-09-20T02:43:56.790Z,4.83
2018-09-20T02:46:25.081Z,5.57
2018-09-20T02:48:53.387Z,5.67
2018-09-20T02:51:21.680Z,4.40
2018-09-20T02:53:49.991Z,5.37
2018-09-20T02:56:18.280Z,5.23
2018-09-20T02:58:46.597Z,4.67
2018-09-20T03:01:14.896Z,4.60
2018-09-20T03:03:43.205Z,5.07
2018-09-20T03:06:11.496Z,5.27
2018-09-20T03:08:39.804Z,5.13
2018-09-20T03:11:08.096Z,4.93
2018-09-20T03:13:36.408Z,4.83
2018-09-20T03:16:04.701Z,4.57
2018-09-20T03:18:33.012Z,5.20
2018-09-20T03:21:01.387Z,5.43
2018-09-20T03:23:29.643Z,4.80
2018-09-20T03:25:57.936Z,4.83
2018-09-20T03:28:26.244Z,4.60
2018-09-20T03:30:54.638Z,4.77
2018-09-20T03:33:22.885Z,4.93
2018-09-20T03:35:51.180Z,4.67
2018-09-20T03:38:19.483Z,5.30
2018-09-20T03:40:47.805Z,4.33
2018-09-20T03:43:16.097Z,4.13
2018-09-20T03:45:44.436Z,4.80
2018-09-20T03:48:12.728Z,5.13
2018-09-20T03:50:41.169Z,5.10
2018-09-20T03:53:09.501Z,4.57
2018-09-20T03:55:37.820Z,3.90
2018-09-20T03:58:06.109Z,4.53
2018-09-20T04:00:34.547Z,4.90
2018-09-20T04:03:02.835Z,4.30
2018-09-20T04:05:31.151Z,4.80
2018-09-20T04:07:59.448Z,5.00
2018-09-20T04:10:27.757Z,5.70
2018-09-20T04:12:56.049Z,4.90
2018-09-20T04:15:24.359Z,5.27
2018-09-20T04:17:52.647Z,5.10
2018-09-20T04:20:20.961Z,5.07
2018-09-20T04:22:49.269Z,4.60
2018-09-20T04:25:17.585Z,5.07
2018-09-20T04:27:46.016Z,5.30
2018-09-20T04:30:14.364Z,5.17
2018-09-20T04:32:42.644Z,5.70
2018-09-20T04:35:10.952Z,5.13
2018-09-20T04:37:39.264Z,4.90
2018-09-20T04:40:07.604Z,5.07
2018-09-20T04:42:35.900Z,5.13
2018-09-20T04:45:04.244Z,4.70
2018-09-20T04:47:32.532Z,4.97
2018-09-20T04:50:00.848Z,5.40
2018-09-20T04:52:29.133Z,4.80
2018-09-20T04:54:57.440Z,5.63
2018-09-20T04:57:25.731Z,5.80
2018-09-20T04:59:54.047Z,5.30
2018-09-20T05:02:22.340Z,4.57
2018-09-20T05:04:50.668Z,5.50
2018-09-20T05:07:18.964Z,6.23
2018-09-20T05:09:47.273Z,5.20
2018-09-20T05:12:15.566Z,5.17
2018-09-20T05:14:43.876Z,5.30
2018-09-20T05:17:12.173Z,6.23
2018-09-20T05:19:40.489Z,5.50
2018-09-20T05:22:08.460Z,7.50
2018-09-20T05:24:36.822Z,6.83
2018-09-20T05:27:05.093Z,5.40
2018-09-20T05:29:33.413Z,7.77
2018-09-20T05:32:01.704Z,5.70
2018-09-20T05:34:30.024Z,7.13
2018-09-20T05:36:58.312Z,4.80
2018-09-20T05:39:26.642Z,5.27
2018-09-20T05:41:54.940Z,5.33
2018-09-20T05:44:23.257Z,4.90
2018-09-20T05:46:51.552Z,5.10
2018-09-20T05:49:19.856Z,4.80
2018-09-20T05:51:48.168Z,4.60
2018-09-20T05:54:16.462Z,5.23
2018-09-20T05:56:44.768Z,5.30
2018-09-20T05:59:13.099Z,5.20
2018-09-20T06:01:41.420Z,6.17
2018-09-20T06:04:09.720Z,6.50
2018-09-20T06:06:38.036Z,8.60
2018-09-20T06:09:07.591Z,7.80
2018-09-20T06:11:35.916Z,8.00
2018-09-20T06:14:04.206Z,5.63
2018-09-20T06:16:32.512Z,6.73
2018-09-20T06:19:00.800Z,8.13
2018-09-20T06:21:29.129Z,6.70
2018-09-20T06:23:57.424Z,9.83
2018-09-20T06:26:25.750Z,7.97
2018-09-20T06:28:54.072Z,8.03
2018-09-20T06:31:22.381Z,7.70
2018-09-20T06:33:50.688Z,7.80
2018-09-20T06:36:19.001Z,5.60
2018-09-20T06:38:47.315Z,6.50
2018-09-20T06:41:15.632Z,5.97
2018-09-20T06:43:43.928Z,5.60
2018-09-20T06:46:12.239Z,8.07
2018-09-20T06:48:40.535Z,8.67
2018-09-20T06:51:08.851Z,8.33
2018-09-20T06:53:37.152Z,8.67
2018-09-20T06:56:05.476Z,8.20
2018-09-20T06:58:33.772Z,7.43
2018-09-20T07:01:02.076Z,7.67
2018-09-20T07:03:30.368Z,5.90
2018-09-20T07:05:58.700Z,6.97
2018-09-20T07:08:26.988Z,6.40
2018-09-20T07:10:55.312Z,5.93
2018-09-20T07:13:23.604Z,5.30
2018-09-20T07:15:51.904Z,5.27
2018-09-20T07:18:20.208Z,5.70
2018-09-20T07:20:48.524Z,5.00
2018-09-20T07:23:16.812Z,5.63
2018-09-20T07:25:45.215Z,4.90
2018-09-20T07:28:13.437Z,4.77
2018-09-20T07:30:41.757Z,4.97
2018-09-20T07:33:10.044Z,5.80
2018-09-20T07:35:38.356Z,4.30
2018-09-20T07:38:06.692Z,4.60
2018-09-20T07:40:35.000Z,5.40
2018-09-20T07:43:03.288Z,5.53
2018-09-20T07:45:31.590Z,4.63
2018-09-20T07:47:59.887Z,4.50
2018-09-20T07:50:28.219Z,4.80
2018-09-20T07:52:56.989Z,4.73
2018-09-20T07:55:25.387Z,4.37
2018-09-20T07:57:53.687Z,4.43
2018-09-20T08:00:21.982Z,5.00
2018-09-20T08:02:50.288Z,4.37
2018-09-20T08:05:18.580Z,5.00
2018-09-20T08:07:46.892Z,4.47
2018-09-20T08:10:15.187Z,4.40
2018-09-20T08:12:43.492Z,4.43
2018-09-20T08:15:11.796Z,4.57
2018-09-20T08:17:40.105Z,4.90
2018-09-20T08:20:08.403Z,4.50
2018-09-20T08:22:36.714Z,4.33
2018-09-20T08:25:05.008Z,4.57
2018-09-20T08:27:33.308Z,4.70
2018-09-20T08:30:01.644Z,4.47
2018-09-20T08:32:29.953Z,4.80
2018-09-20T08:34:58.244Z,5.70
2018-09-20T08:37:26.586Z,4.93
2018-09-20T08:39:54.884Z,4.90
2018-09-20T08:42:23.288Z,4.43
2018-09-20T08:44:51.492Z,4.87
2018-09-20T08:47:19.800Z,4.97
2018-09-20T08:49:48.088Z,5.40
2018-09-20T08:52:16.400Z,5.23
2018-09-20T08:54:44.695Z,4.27
2018-09-20T08:57:13.034Z,4.30
2018-09-20T08:59:41.315Z,4.83
2018-09-20T09:02:09.620Z,4.30
2018-09-20T09:04:37.922Z,4.97
2018-09-20T09:07:06.335Z,3.90
2018-09-20T09:09:34.628Z,5.40
2018-09-20T09:12:02.956Z,5.00
2018-09-20T09:14:31.245Z,4.90
2018-09-20T09:16:59.547Z,4.50
2018-09-20T09:19:27.836Z,4.47
2018-09-20T09:21:56.159Z,4.57
2018-09-20T09:24:24.444Z,4.47
2018-09-20T09:26:52.752Z,4.63
2018-09-20T09:29:21.033Z,5.00
2018-09-20T09:31:49.348Z,5.13
2018-09-20T09:34:17.713Z,5.50
2018-09-20T09:36:45.967Z,4.10
2018-09-20T09:39:14.548Z,5.43
2018-09-20T09:41:43.468Z,5.33
2018-09-20T09:44:11.755Z,4.60
2018-09-20T09:46:40.065Z,4.87
2018-09-20T09:49:08.348Z,5.10
2018-09-20T09:51:36.656Z,4.40
2018-09-20T09:54:04.952Z,4.73
2018-09-20T09:56:33.264Z,5.60
2018-09-20T09:59:01.552Z,5.17
2018-09-20T10:01:29.857Z,4.90
2018-09-20T10:03:58.152Z,5.10
2018-09-20T10:06:26.461Z,4.50
2018-09-20T10:08:54.745Z,4.60
2018-09-20T10:11:23.032Z,4.57
2018-09-20T10:13:51.348Z,4.87
2018-09-20T10:16:19.676Z,5.40
2018-09-20T10:18:47.983Z,5.07
2018-09-20T10:21:16.292Z,4.70
2018-09-20T10:23:44.600Z,4.30
2018-09-20T10:26:12.887Z,4.70
2018-09-20T10:28:41.192Z,4.37
2018-09-20T10:31:09.564Z,4.30
2018-09-20T10:33:37.877Z,4.90
2018-09-20T10:36:06.168Z,4.67
2018-09-20T10:38:34.492Z,4.20
2018-09-20T10:41:02.801Z,4.67
2018-09-20T10:43:31.117Z,4.23
2018-09-20T10:45:59.408Z,4.70
2018-09-20T10:48:27.712Z,4.20
2018-09-20T10:50:55.997Z,4.80
2018-09-20T10:53:24.297Z,4.53
2018-09-20T10:55:52.592Z,4.67
2018-09-20T10:58:20.900Z,4.47
2018-09-20T11:00:49.248Z,5.10
2018-09-20T11:03:17.847Z,4.67
2018-09-20T11:05:46.152Z,4.47
2018-09-20T11:08:14.494Z,4.97
2018-09-20T11:10:42.781Z,4.40
2018-09-20T11:13:11.140Z,4.40
2018-09-20T11:15:39.429Z,5.10
2018-09-20T11:18:07.732Z,5.60
2018-09-20T11:20:36.082Z,5.17
2018-09-20T11:23:04.387Z,4.97
2018-09-20T11:25:32.676Z,4.60
2018-09-20T11:28:00.985Z,5.50
2018-09-20T11:30:29.272Z,4.90
2018-09-20T11:32:57.584Z,4.87
2018-09-20T11:35:25.880Z,4.63
2018-09-20T11:37:54.201Z,5.03
2018-09-20T11:40:22.483Z,4.87
2018-09-20T11:42:50.781Z,4.80
2018-09-20T11:45:19.063Z,4.63
2018-09-20T11:47:47.383Z,4.60
2018-09-20T11:50:15.677Z,4.73
2018-09-20T11:52:43.983Z,4.77
2018-09-20T11:55:12.269Z,4.20
2018-09-20T11:57:40.580Z,4.53
2018-09-20T12:00:08.876Z,4.53
2018-09-20T12:02:37.196Z,4.40
2018-09-20T12:05:05.504Z,5.17
2018-09-20T12:07:33.812Z,5.00
2018-09-20T12:10:02.101Z,4.73
2018-09-20T12:12:30.412Z,6.03
2018-09-20T12:14:58.712Z,4.33
2018-09-20T12:17:27.031Z,5.10
2018-09-20T12:19:55.353Z,5.00
2018-09-20T12:22:23.631Z,4.70
2018-09-20T12:24:51.932Z,4.53
2018-09-20T12:27:20.221Z,5.07
2018-09-20T12:29:48.534Z,4.37
2018-09-20T12:32:44.239Z,4.97
2018-09-20T12:35:12.492Z,4.80
2018-09-20T12:37:40.852Z,4.40
2018-09-20T12:40:09.419Z,5.47
2018-09-20T12:42:37.738Z,4.73
2018-09-20T12:45:06.336Z,5.57
2018-09-20T12:47:34.628Z,5.47
2018-09-20T12:50:02.949Z,5.57
2018-09-20T12:52:31.248Z,4.77
2018-09-20T12:54:59.555Z,5.37
2018-09-20T12:57:27.876Z,4.77
2018-09-20T12:59:56.185Z,5.10
2018-09-20T13:02:24.489Z,4.60
2018-09-20T13:04:52.800Z,5.97
2018-09-20T13:07:21.144Z,4.50
2018-09-20T13:09:49.548Z,5.20
2018-09-20T13:12:18.140Z,4.50
2018-09-20T13:14:46.532Z,4.60
2018-09-20T13:17:14.832Z,4.47
2018-09-20T13:19:43.158Z,5.03
2018-09-20T13:22:11.447Z,4.33
2018-09-20T13:24:39.754Z,4.90
2018-09-20T13:27:08.046Z,4.57
2018-09-20T13:29:36.363Z,4.70
2018-09-20T13:32:04.660Z,4.50
2018-09-20T13:34:32.968Z,5.00
2018-09-20T13:37:01.282Z,4.53
2018-09-20T13:39:29.619Z,5.00
2018-09-20T13:41:57.913Z,5.23
2018-09-20T13:44:26.223Z,4.70
2018-09-20T13:46:54.524Z,5.63
2018-09-20T13:49:22.831Z,4.70
2018-09-20T13:51:51.577Z,5.50
2018-09-20T13:54:19.901Z,5.07
2018-09-20T13:56:48.191Z,4.63
2018-09-20T13:59:16.503Z,4.60
2018-09-20T14:01:44.787Z,4.70
2018-09-20T14:04:13.092Z,4.87
2018-09-20T14:06:41.376Z,5.10
2018-09-20T14:09:10.856Z,4.77
2018-09-20T14:11:39.645Z,5.40
2018-09-20T14:14:07.997Z,4.63
2018-09-20T14:16:36.285Z,4.40
2018-09-20T14:19:04.660Z,4.83
2018-09-20T14:21:32.968Z,4.30
2018-09-20T14:24:01.280Z,4.20
2018-09-20T14:26:29.572Z,5.00
2018-09-20T14:28:57.884Z,4.90
2018-09-20T14:31:26.184Z,4.80
2018-09-20T14:33:54.504Z,4.43
2018-09-20T14:36:22.900Z,4.60
2018-09-20T14:38:51.236Z,5.00
2018-09-20T14:41:19.528Z,4.53
2018-09-20T14:43:47.907Z,4.83
2018-09-20T14:46:16.199Z,4.97
2018-09-20T14:48:44.508Z,4.60
2018-09-20T14:51:12.800Z,4.23
2018-09-20T14:53:41.366Z,4.50
2018-09-20T14:56:09.665Z,4.97
2018-09-20T14:58:37.956Z,4.50
2018-09-20T15:01:07.284Z,5.20
2018-09-20T15:03:35.760Z,4.50
2018-09-20T15:06:04.099Z,4.17
2018-09-20T15:08:32.648Z,4.90
2018-09-20T15:11:01.265Z,4.63
2018-09-20T15:13:29.583Z,4.50
2018-09-20T15:15:57.900Z,5.33
2018-09-20T15:18:26.192Z,4.40
2018-09-20T15:20:54.506Z,5.70
2018-09-20T15:23:22.798Z,4.73
2018-09-20T15:25:51.104Z,4.60
2018-09-20T15:28:19.388Z,4.70
2018-09-20T15:30:47.898Z,5.50
2018-09-20T15:33:16.224Z,4.97
2018-09-20T15:35:44.536Z,4.73
2018-09-20T15:38:12.854Z,4.70
2018-09-20T15:40:41.165Z,5.20
2018-09-20T15:43:09.456Z,4.60
2018-09-20T15:45:37.765Z,5.13
2018-09-20T15:48:06.133Z,5.37
2018-09-20T15:50:34.444Z,4.73
2018-09-20T15:53:02.740Z,4.93
2018-09-20T15:55:31.047Z,6.03
2018-09-20T15:57:59.376Z,5.27
2018-09-20T16:00:27.672Z,5.80
2018-09-20T16:02:55.975Z,5.07
2018-09-20T16:05:24.285Z,5.00
2018-09-20T16:07:52.580Z,5.37
2018-09-20T16:10:20.896Z,5.20
2018-09-20T16:12:49.199Z,5.60
2018-09-20T16:15:17.808Z,5.30
2018-09-20T16:17:46.120Z,4.80
2018-09-20T16:20:14.428Z,5.43
2018-09-20T16:22:42.716Z,5.10
2018-09-20T16:25:11.048Z,5.93
2018-09-20T16:27:39.331Z,5.87
2018-09-20T16:30:28.048Z,5.27
2018-09-20T16:34:13.800Z,5.53
2018-09-20T16:36:54.717Z,4.80
2018-09-20T16:39:24.391Z,5.20
2018-09-20T16:41:54.475Z,5.50
2018-09-20T16:44:22.764Z,4.83
2018-09-20T16:46:51.067Z,5.30
2018-09-20T16:49:19.360Z,5.70
2018-09-20T16:51:48.139Z,5.83
2018-09-20T16:54:16.510Z,5.93
2018-09-20T16:56:44.976Z,5.30
2018-09-20T16:59:13.287Z,4.80
2018-09-20T17:01:41.599Z,5.30
2018-09-20T17:04:09.895Z,5.30
2018-09-20T17:06:38.204Z,6.17
2018-09-20T17:09:07.666Z,6.03
2018-09-20T17:11:35.980Z,5.50
2018-09-20T17:14:04.272Z,4.53
2018-09-20T17:16:32.640Z,5.47
2018-09-20T17:19:00.900Z,5.50
2018-09-20T17:21:29.218Z,5.80
2018-09-20T17:23:57.704Z,5.43
2018-09-20T17:26:26.008Z,5.67
2018-09-20T17:28:54.344Z,5.37
2018-09-20T17:31:22.651Z,6.03
2018-09-20T17:33:50.985Z,5.63
2018-09-20T17:36:20.254Z,6.13
2018-09-20T17:38:49.094Z,5.40
2018-09-20T17:41:20.179Z,6.10
2018-09-20T17:43:53.472Z,6.10
2018-09-20T17:46:21.786Z,6.67
2018-09-20T17:48:50.109Z,5.83
2018-09-20T17:51:19.064Z,5.43
2018-09-20T17:53:47.628Z,6.30
2018-09-20T17:56:16.336Z,6.77
2018-09-20T17:58:45.027Z,6.63
2018-09-20T18:01:13.336Z,7.03
2018-09-20T18:03:41.668Z,5.80
2018-09-20T18:06:09.991Z,6.93
2018-09-20T18:08:38.283Z,5.83
2018-09-20T18:11:06.740Z,5.60
2018-09-20T18:13:35.036Z,6.97
2018-09-20T18:16:03.347Z,6.90
2018-09-20T18:18:31.646Z,6.83
2018-09-20T18:20:59.951Z,6.03
2018-09-20T18:23:28.240Z,6.43
2018-09-20T18:25:56.551Z,6.60
2018-09-20T18:28:24.858Z,6.50
2018-09-20T18:30:53.200Z,6.90
2018-09-20T18:33:21.502Z,7.13
2018-09-20T18:35:49.820Z,8.37
2018-09-20T18:38:18.403Z,7.90
2018-09-20T18:40:46.708Z,6.60
2018-09-20T18:43:15.008Z,7.47
2018-09-20T18:45:43.408Z,7.30
2018-09-20T18:48:11.699Z,7.27
2018-09-20T18:50:40.004Z,6.93
2018-09-20T18:53:08.304Z,7.27
2018-09-20T18:55:36.630Z,7.13
2018-09-20T18:58:04.985Z,7.57
2018-09-20T19:00:33.276Z,7.57
2018-09-20T19:03:01.601Z,7.20
2018-09-20T19:05:29.888Z,7.13
2018-09-20T19:07:58.232Z,7.50
2018-09-20T19:10:26.736Z,7.60
2018-09-20T19:12:55.086Z,7.27
2018-09-20T19:15:23.372Z,8.30
2018-09-20T19:17:51.691Z,7.93
2018-09-20T19:20:19.993Z,8.10
2018-09-20T19:22:48.322Z,7.00
2018-09-20T19:25:16.608Z,7.13
2018-09-20T19:27:44.925Z,7.37
2018-09-20T19:30:13.264Z,7.67
2018-09-20T19:32:41.580Z,7.97
2018-09-20T19:35:09.911Z,7.70
2018-09-20T19:37:38.271Z,8.40
2018-09-20T19:40:06.616Z,7.90
2018-09-20T19:42:34.944Z,7.07
2018-09-20T19:45:03.287Z,7.97
2018-09-20T19:47:31.696Z,8.20
2018-09-20T19:49:59.988Z,7.83
2018-09-20T19:52:28.316Z,8.07
2018-09-20T19:54:56.666Z,7.60
2018-09-20T19:57:24.952Z,7.40
2018-09-20T19:59:53.252Z,8.17
2018-09-20T20:02:21.572Z,8.73
2018-09-20T20:04:49.856Z,7.57
2018-09-20T20:07:18.172Z,7.50
2018-09-20T20:09:46.462Z,8.00
2018-09-20T20:12:14.796Z,8.20
2018-09-20T20:14:43.088Z,8.13
2018-09-20T20:17:11.396Z,7.53
2018-09-20T20:19:39.700Z,8.40
2018-09-20T20:22:08.152Z,7.83
2018-09-20T20:24:36.576Z,8.10
2018-09-20T20:27:04.889Z,8.83
2018-09-20T20:29:33.188Z,8.87
2018-09-20T20:32:01.509Z,7.67
2018-09-20T20:34:29.808Z,8.03
2018-09-20T20:36:58.116Z,8.00
2018-09-20T20:39:26.428Z,7.97
2018-09-20T20:41:54.748Z,8.40
2018-09-20T20:44:23.044Z,8.00
2018-09-20T20:46:51.363Z,7.60
2018-09-20T20:49:19.651Z,7.60
2018-09-20T20:51:47.980Z,8.50
2018-09-20T20:54:16.280Z,7.20
2018-09-20T20:56:44.597Z,8.33
2018-09-20T20:59:12.904Z,8.70
2018-09-20T21:01:41.225Z,8.40
2018-09-20T21:04:09.524Z,10.60
2018-09-20T21:06:37.867Z,8.30
2018-09-20T21:09:08.040Z,9.73
2018-09-20T21:11:36.352Z,9.70
2018-09-20T21:14:04.672Z,8.53
2018-09-20T21:16:33.036Z,8.40
2018-09-20T21:19:01.360Z,9.57
2018-09-20T21:21:29.660Z,8.47
2018-09-20T21:23:57.980Z,8.20
2018-09-20T21:26:26.269Z,8.63
2018-09-20T21:28:54.868Z,8.47
2018-09-20T21:31:23.171Z,9.83
2018-09-20T21:33:51.483Z,10.20
2018-09-20T21:36:19.778Z,10.23
2018-09-20T21:38:48.192Z,9.87
2018-09-20T21:41:16.489Z,9.60
2018-09-20T21:43:44.822Z,9.40
2018-09-20T21:46:13.120Z,10.33
2018-09-20T21:48:41.440Z,8.20
2018-09-20T21:51:09.800Z,10.63
2018-09-20T21:53:38.091Z,8.37
2018-09-20T21:56:06.488Z,8.30
2018-09-20T21:58:34.818Z,8.90
2018-09-20T22:01:03.916Z,8.20
2018-09-20T22:03:33.088Z,8.77
2018-09-20T22:06:01.415Z,8.50
2018-09-20T22:08:29.733Z,8.60
2018-09-20T22:10:58.035Z,8.40
2018-09-20T22:13:26.348Z,9.67
2018-09-20T22:15:54.648Z,8.57
2018-09-20T22:18:22.968Z,7.90
2018-09-20T22:20:51.269Z,9.10
2018-09-20T22:23:19.604Z,9.23
2018-09-20T22:25:47.904Z,8.13
2018-09-20T22:28:16.216Z,8.50
2018-09-20T22:30:44.504Z,8.00
2018-09-20T22:33:12.820Z,8.00
2018-09-20T22:35:41.134Z,7.80
2018-09-20T22:38:09.471Z,8.10
2018-09-20T22:40:37.761Z,8.70
2018-09-20T22:43:06.412Z,8.10
2018-09-20T22:45:34.704Z,7.63
2018-09-20T22:48:03.156Z,9.47
2018-09-20T22:50:31.452Z,9.70
2018-09-20T22:52:59.785Z,8.27
2018-09-20T22:55:28.085Z,9.40
2018-09-20T22:57:56.404Z,9.00
2018-09-20T23:00:25.289Z,8.13
2018-09-20T23:02:55.300Z,9.10
2018-09-20T23:05:23.777Z,8.87
2018-09-20T23:07:52.100Z,8.63
2018-09-20T23:10:20.447Z,8.53
2018-09-20T23:12:48.763Z,8.97
2018-09-20T23:15:17.059Z,9.10
2018-09-20T23:17:45.377Z,8.83
2018-09-20T23:20:13.672Z,8.53
2018-09-20T23:22:41.985Z,7.63
2018-09-20T23:25:10.285Z,8.30
2018-09-20T23:27:38.592Z,7.73
2018-09-20T23:30:06.956Z,8.70
2018-09-20T23:32:35.252Z,7.83
2018-09-20T23:35:03.576Z,8.37
2018-09-20T23:37:31.892Z,8.77
2018-09-20T23:40:00.232Z,8.10
2018-09-20T23:42:28.531Z,7.83
2018-09-20T23:44:56.879Z,7.80
2018-09-20T23:47:25.183Z,6.93
2018-09-20T23:49:53.508Z,8.33
2018-09-20T23:52:21.796Z,7.60
2018-09-20T23:54:50.108Z,8.30
2018-09-20T23:57:18.407Z,7.90
2018-09-20T23:59:46.732Z,7.50
